Terminal Aerodrome Forecast
Issued by NWS Shreveport, LA

Home | Current Version | Previous Version | Text Only | Print | Product List | Glossary On
Versions: 1 2 3 4 5 6 7 8 9 10 11 12 13 14
000
FTUS44 KSHV 172300 RRA
TAFELD
TAF
KELD 172343Z 1800/1824 06004KT P6SM BKN070 OVC110
     FM180600 05004KT P6SM -RA OVC045
     FM181200 07004KT 5SM -RA BR OVC025
     FM181500 08004KT 3SM -RA BR SCT008 OVC013
     FM181800 08004KT 6SM BR OVC008=

USA.gov is the U.S. government's official web portal to all federal, state and local government web resources and services.